Time;durP1;ratioP1;P1;durP2;ratioP2;P2;SDS_P1;SDS_P2;PMS_P1;PMS_P2;Temp;Humidity;BMP_temperature;BMP_pressure;BME280_temperature;BME280_humidity;BME280_pressure;Samples;Min_cycle;Max_cycle;Signal;HPM_P1;HPM_P2
2021/01/13 00:00:45;;;;;;;6.17;4.33;;;0.80;99.90;;;;;;1883885;74;21428;-72
2021/01/13 00:03:12;;;;;;;5.37;3.85;;;0.70;99.90;;;;;;1899520;74;21049;-71
2021/01/13 00:05:38;;;;;;;7.95;3.95;;;0.70;99.90;;;;;;1941913;73;21136;-71
2021/01/13 00:08:04;;;;;;;8.60;4.17;;;0.80;99.90;;;;;;1938259;73;21054;-72
2021/01/13 00:10:30;;;;;;;4.90;3.55;;;0.80;99.90;;;;;;1945799;73;21141;-71
2021/01/13 00:12:56;;;;;;;7.03;3.90;;;0.70;99.90;;;;;;1941009;73;21117;-72
2021/01/13 00:15:22;;;;;;;8.23;4.40;;;0.80;99.90;;;;;;1941627;73;21109;-72
2021/01/13 00:17:48;;;;;;;7.87;3.85;;;0.80;99.90;;;;;;1938124;73;21136;-72
2021/01/13 00:20:15;;;;;;;7.45;3.92;;;0.90;99.90;;;;;;1937684;73;21502;-72
2021/01/13 00:22:41;;;;;;;6.87;3.95;;;0.90;99.90;;;;;;1917880;74;21451;-71
2021/01/13 00:25:07;;;;;;;10.30;4.40;;;0.90;99.90;;;;;;1932022;73;21593;-71
2021/01/13 00:27:33;;;;;;;7.67;4.03;;;1.00;99.90;;;;;;1948745;73;21063;-72
2021/01/13 00:29:59;;;;;;;11.63;4.17;;;1.10;99.90;;;;;;1947717;73;21059;-72
2021/01/13 00:32:25;;;;;;;7.60;4.60;;;1.00;99.90;;;;;;1941512;73;21070;-72
2021/01/13 00:34:51;;;;;;;7.83;3.85;;;1.10;99.90;;;;;;1938026;73;21067;-72
2021/01/13 00:37:17;;;;;;;4.55;3.80;;;1.10;99.90;;;;;;1941547;73;21063;-72
2021/01/13 00:39:44;;;;;;;5.58;3.50;;;1.10;99.90;;;;;;1941695;74;21080;-73
2021/01/13 00:42:10;;;;;;;6.42;3.75;;;1.10;99.90;;;;;;1941532;73;21107;-72
2021/01/13 00:44:36;;;;;;;9.80;3.67;;;1.10;99.90;;;;;;1946381;73;21071;-71
2021/01/13 00:47:02;;;;;;;6.33;3.27;;;1.00;99.90;;;;;;1931831;73;21062;-72
2021/01/13 00:49:28;;;;;;;7.42;4.47;;;0.90;99.90;;;;;;1919345;74;21094;-72
2021/01/13 00:51:54;;;;;;;5.78;3.90;;;1.00;99.90;;;;;;1934605;73;21073;-72
2021/01/13 00:54:20;;;;;;;8.18;3.80;;;1.00;99.90;;;;;;1937919;73;21531;-71
2021/01/13 00:56:46;;;;;;;5.45;3.85;;;1.00;99.90;;;;;;1941697;74;21562;-71
2021/01/13 00:59:12;;;;;;;5.72;3.92;;;1.00;99.90;;;;;;1930346;73;21554;-72
2021/01/13 01:01:40;;;;;;;5.37;3.65;;;1.00;99.90;;;;;;1931431;73;21094;-72
2021/01/13 01:04:08;;;;;;;7.80;4.03;;;1.10;99.90;;;;;;1918654;74;21083;-72
2021/01/13 01:06:35;;;;;;;5.83;3.62;;;1.10;99.90;;;;;;1919918;74;21099;-72
2021/01/13 01:09:02;;;;;;;10.80;3.77;;;1.30;99.90;;;;;;1918990;74;21087;-72
2021/01/13 01:11:28;;;;;;;6.62;3.60;;;1.20;99.90;;;;;;1922700;74;21533;-72
2021/01/13 01:13:54;;;;;;;9.75;3.70;;;1.30;99.90;;;;;;1920291;74;21448;-73
2021/01/13 01:16:20;;;;;;;4.40;3.12;;;1.30;99.90;;;;;;1920377;74;21126;-72
2021/01/13 01:18:46;;;;;;;4.60;3.05;;;1.20;99.90;;;;;;1924478;73;21125;-73
2021/01/13 01:21:12;;;;;;;5.17;3.70;;;1.30;99.90;;;;;;1920202;74;21070;-73
2021/01/13 01:23:38;;;;;;;4.28;3.17;;;1.20;99.90;;;;;;1898169;74;21126;-73
2021/01/13 01:26:05;;;;;;;11.55;3.67;;;1.20;99.90;;;;;;1894601;74;21081;-72
2021/01/13 01:28:31;;;;;;;5.45;3.77;;;1.30;99.90;;;;;;1941874;73;21008;-72
2021/01/13 01:30:57;;;;;;;5.45;3.12;;;1.30;99.90;;;;;;1941748;73;21040;-71
2021/01/13 01:33:23;;;;;;;10.28;4.55;;;1.30;99.90;;;;;;1940941;73;21137;-72
2021/01/13 01:35:49;;;;;;;7.28;4.03;;;1.40;99.90;;;;;;1939899;73;21114;-72
2021/01/13 01:38:15;;;;;;;6.10;3.92;;;1.30;99.90;;;;;;1941818;73;21064;-72
2021/01/13 01:40:42;;;;;;;8.73;3.60;;;1.30;99.90;;;;;;1940221;73;21062;-72
2021/01/13 01:43:08;;;;;;;9.30;4.25;;;1.30;99.90;;;;;;1932915;73;21502;-71
2021/01/13 01:45:34;;;;;;;4.65;3.35;;;1.30;99.90;;;;;;1920187;74;21492;-72
2021/01/13 01:48:00;;;;;;;6.72;3.90;;;1.40;99.90;;;;;;1922578;75;21179;-71
2021/01/13 01:50:27;;;;;;;10.18;3.90;;;1.30;99.90;;;;;;1920464;74;21083;-72
2021/01/13 01:52:53;;;;;;;10.88;3.42;;;1.40;99.90;;;;;;1922608;74;21174;-72
2021/01/13 01:55:19;;;;;;;7.67;3.60;;;1.40;99.90;;;;;;1920321;74;21083;-71
2021/01/13 01:57:46;;;;;;;8.35;4.10;;;1.40;99.90;;;;;;1896635;74;21075;-71
2021/01/13 02:00:20;;;;;;;5.33;3.47;;;1.40;99.90;;;;;;1903141;74;21088;-71
2021/01/13 02:02:40;;;;;;;5.03;2.98;;;1.40;99.90;;;;;;1891011;74;21102;-71
2021/01/13 02:05:07;;;;;;;6.33;3.22;;;1.30;99.90;;;;;;1903787;74;21080;-70
2021/01/13 02:07:33;;;;;;;5.20;2.70;;;1.40;99.90;;;;;;1906489;75;21067;-72
2021/01/13 02:09:59;;;;;;;5.80;2.85;;;1.50;99.90;;;;;;1906392;75;21131;-70
2021/01/13 02:12:25;;;;;;;2.40;2.20;;;1.50;99.90;;;;;;1887921;73;21248;-71
2021/01/13 02:14:51;;;;;;;6.40;2.22;;;1.50;99.90;;;;;;1896543;74;21089;-71
2021/01/13 02:17:17;;;;;;;3.52;2.10;;;1.50;99.90;;;;;;1895904;74;21067;-71
2021/01/13 02:19:43;;;;;;;1.77;1.45;;;1.60;99.90;;;;;;1902271;74;21005;-71
2021/01/13 02:22:09;;;;;;;3.42;1.80;;;1.60;99.90;;;;;;1886417;74;21125;-70
2021/01/13 02:24:36;;;;;;;3.22;1.75;;;1.60;99.90;;;;;;1906614;75;21033;-71
2021/01/13 02:27:02;;;;;;;2.70;1.80;;;1.60;99.90;;;;;;1897324;73;21067;-71
2021/01/13 02:29:28;;;;;;;5.20;2.10;;;1.60;99.90;;;;;;1906731;74;21088;-71
2021/01/13 02:31:54;;;;;;;2.77;1.60;;;1.50;99.90;;;;;;1883325;74;21064;-70
2021/01/13 02:34:20;;;;;;;2.80;1.85;;;1.60;99.90;;;;;;1900920;74;21136;-70
2021/01/13 02:36:46;;;;;;;3.95;2.10;;;1.70;99.90;;;;;;1887506;74;21575;-70
2021/01/13 02:39:12;;;;;;;2.80;1.70;;;1.70;99.90;;;;;;1902696;74;21534;-71
2021/01/13 02:41:38;;;;;;;8.05;2.33;;;1.70;99.90;;;;;;1906569;74;21548;-70
2021/01/13 02:44:05;;;;;;;3.22;1.90;;;1.70;99.90;;;;;;1906375;75;21080;-70
2021/01/13 02:46:31;;;;;;;5.75;1.87;;;1.60;99.90;;;;;;1902538;74;21059;-70
2021/01/13 02:48:57;;;;;;;4.80;2.47;;;1.70;99.90;;;;;;1894850;74;21155;-70
2021/01/13 02:51:23;;;;;;;3.40;1.60;;;1.70;99.90;;;;;;1884783;74;21149;-71
2021/01/13 02:53:49;;;;;;;4.12;2.00;;;1.60;99.90;;;;;;1884956;74;21042;-70
2021/01/13 02:56:16;;;;;;;7.10;1.92;;;1.70;99.90;;;;;;1891915;73;21044;-72
2021/01/13 02:58:42;;;;;;;3.10;1.77;;;1.80;99.90;;;;;;1897047;75;21430;-70
2021/01/13 03:01:08;;;;;;;2.95;1.80;;;1.80;99.90;;;;;;1890827;73;21479;-71
2021/01/13 03:03:34;;;;;;;5.22;1.82;;;1.80;99.90;;;;;;1903375;75;21057;-71
2021/01/13 03:06:00;;;;;;;7.37;2.75;;;1.70;99.90;;;;;;1884751;74;21118;-71
2021/01/13 03:08:26;;;;;;;4.62;1.90;;;1.80;99.90;;;;;;1900730;74;21131;-70
2021/01/13 03:10:52;;;;;;;1.87;1.50;;;1.80;99.90;;;;;;1901339;74;21068;-70
2021/01/13 03:13:19;;;;;;;2.50;1.90;;;1.80;99.90;;;;;;1906832;74;21073;-71
2021/01/13 03:15:45;;;;;;;3.00;1.90;;;1.80;99.90;;;;;;1940616;73;21076;-70
2021/01/13 03:18:11;;;;;;;13.83;2.08;;;1.70;99.90;;;;;;1937244;73;21141;-71
2021/01/13 03:20:37;;;;;;;4.67;1.52;;;1.70;99.90;;;;;;1949388;73;21071;-71
2021/01/13 03:23:03;;;;;;;2.80;1.90;;;1.70;99.90;;;;;;1919915;74;21149;-71
2021/01/13 03:25:29;;;;;;;3.65;2.00;;;1.60;99.90;;;;;;1931478;73;21079;-71
2021/01/13 03:27:55;;;;;;;2.77;1.72;;;1.60;99.90;;;;;;1936454;73;21067;-71
2021/01/13 03:30:21;;;;;;;3.17;2.33;;;1.50;99.90;;;;;;1938432;73;21491;-70
2021/01/13 03:32:48;;;;;;;3.72;1.95;;;1.60;99.90;;;;;;1935915;73;21494;-70
2021/01/13 03:35:14;;;;;;;4.20;1.60;;;1.60;99.90;;;;;;1921763;73;21443;-70
2021/01/13 03:37:40;;;;;;;2.12;1.75;;;1.60;99.90;;;;;;1938061;73;21055;-71
2021/01/13 03:40:06;;;;;;;4.50;2.62;;;1.60;99.90;;;;;;1937878;73;21141;-70
2021/01/13 03:42:32;;;;;;;2.65;2.42;;;1.40;99.90;;;;;;1939887;73;21076;-70
2021/01/13 03:44:58;;;;;;;10.78;2.08;;;1.30;99.90;;;;;;1925009;73;21168;-70
2021/01/13 03:47:24;;;;;;;3.92;2.50;;;1.40;99.90;;;;;;1918262;74;21082;-71
2021/01/13 03:49:50;;;;;;;9.78;1.90;;;1.40;99.90;;;;;;1910615;74;21122;-71
2021/01/13 03:52:17;;;;;;;2.17;1.72;;;1.40;99.90;;;;;;1906506;74;21140;-71
2021/01/13 03:54:43;;;;;;;3.62;1.85;;;1.50;99.90;;;;;;1887952;74;21472;-71
2021/01/13 03:57:09;;;;;;;6.10;3.08;;;1.50;99.90;;;;;;1906167;74;21454;-71
2021/01/13 03:59:35;;;;;;;5.25;2.25;;;1.50;99.90;;;;;;1901130;74;21542;-70
2021/01/13 04:02:01;;;;;;;3.22;2.10;;;1.40;99.90;;;;;;1906713;74;21077;-71
2021/01/13 04:04:27;;;;;;;3.27;2.60;;;1.40;99.90;;;;;;1891841;73;21071;-71
2021/01/13 04:06:53;;;;;;;2.17;2.00;;;1.40;99.90;;;;;;1896195;74;21069;-72
2021/01/13 04:09:19;;;;;;;3.90;2.45;;;1.30;99.90;;;;;;1889599;74;21125;-70
2021/01/13 04:11:45;;;;;;;5.33;2.25;;;1.40;99.90;;;;;;1891303;74;21127;-71
2021/01/13 04:14:12;;;;;;;4.08;2.12;;;1.30;99.90;;;;;;1886853;74;21032;-70
2021/01/13 04:16:38;;;;;;;9.15;2.35;;;1.30;99.90;;;;;;1899580;74;21061;-71
2021/01/13 04:19:04;;;;;;;4.40;2.17;;;1.30;99.90;;;;;;1906532;74;21067;-70
2021/01/13 04:21:30;;;;;;;3.30;2.30;;;1.40;99.90;;;;;;1906652;74;21076;-70
2021/01/13 04:23:56;;;;;;;5.78;2.55;;;1.50;99.90;;;;;;1898721;74;21067;-70
2021/01/13 04:26:22;;;;;;;5.58;2.30;;;1.40;99.90;;;;;;1898902;74;21092;-71
2021/01/13 04:28:48;;;;;;;5.03;1.90;;;1.40;99.90;;;;;;1901261;74;21541;-71
2021/01/13 04:31:14;;;;;;;1.90;1.70;;;1.30;99.90;;;;;;1906717;74;21469;-71
2021/01/13 04:33:41;;;;;;;5.47;1.98;;;1.20;99.90;;;;;;1889660;74;21524;-72
2021/01/13 04:36:07;;;;;;;3.62;1.90;;;1.30;99.90;;;;;;1897488;74;21151;-70
2021/01/13 04:38:33;;;;;;;3.77;2.02;;;1.10;99.90;;;;;;1893973;74;21136;-70
2021/01/13 04:40:59;;;;;;;5.08;2.15;;;1.10;99.90;;;;;;1904295;74;21080;-70
2021/01/13 04:43:25;;;;;;;4.05;2.20;;;1.20;99.90;;;;;;1941076;73;21133;-70
2021/01/13 04:45:51;;;;;;;5.62;3.10;;;1.10;99.90;;;;;;1936717;73;21265;-71
2021/01/13 04:48:17;;;;;;;7.10;2.55;;;1.20;99.90;;;;;;1919067;74;21066;-70
2021/01/13 04:50:43;;;;;;;3.70;2.02;;;1.10;99.90;;;;;;1920808;73;21485;-70
2021/01/13 04:53:10;;;;;;;4.15;2.05;;;1.20;99.90;;;;;;1917553;74;21404;-71
2021/01/13 04:55:36;;;;;;;2.50;2.22;;;1.20;99.90;;;;;;1884148;73;21495;-70
2021/01/13 04:58:02;;;;;;;3.37;1.70;;;1.30;99.90;;;;;;1904972;75;21077;-71
2021/01/13 05:00:28;;;;;;;2.60;1.92;;;1.30;99.90;;;;;;1897103;74;21107;-70
2021/01/13 05:02:54;;;;;;;3.20;2.00;;;1.30;99.90;;;;;;1906384;74;21077;-69
2021/01/13 05:05:21;;;;;;;4.05;2.65;;;1.20;99.90;;;;;;1906353;74;21192;-71
2021/01/13 05:07:47;;;;;;;3.75;2.15;;;1.30;99.90;;;;;;1895339;74;21158;-70
2021/01/13 05:10:13;;;;;;;3.92;1.95;;;1.30;99.90;;;;;;1889726;75;21068;-70
2021/01/13 05:12:39;;;;;;;1.47;1.37;;;1.20;99.90;;;;;;1906907;74;21567;-70
2021/01/13 05:15:05;;;;;;;1.50;1.40;;;1.30;99.90;;;;;;1906406;75;21421;-72
2021/01/13 05:17:32;;;;;;;4.92;2.37;;;1.20;99.90;;;;;;1903156;74;21508;-72
2021/01/13 05:19:58;;;;;;;4.62;2.25;;;1.20;99.90;;;;;;1896577;75;21044;-72
2021/01/13 05:22:24;;;;;;;4.65;2.33;;;1.30;99.90;;;;;;1906535;75;21138;-72
2021/01/13 05:24:50;;;;;;;3.52;2.20;;;1.20;99.90;;;;;;1901133;74;21125;-73
2021/01/13 05:27:16;;;;;;;3.55;1.82;;;1.30;99.90;;;;;;1905216;74;21070;-70
2021/01/13 05:29:42;;;;;;;3.17;1.80;;;1.30;99.90;;;;;;1914554;74;21524;-72
2021/01/13 05:32:09;;;;;;;4.03;2.17;;;1.30;99.90;;;;;;1889989;74;21521;-72
2021/01/13 05:34:35;;;;;;;3.80;1.87;;;1.30;99.90;;;;;;1890830;74;21075;-72
2021/01/13 05:37:01;;;;;;;7.83;1.82;;;1.20;99.90;;;;;;1906359;75;21104;-71
2021/01/13 05:39:27;;;;;;;2.12;1.90;;;1.30;99.90;;;;;;1892222;74;21150;-71
2021/01/13 05:41:53;;;;;;;3.92;2.05;;;1.40;99.90;;;;;;1902330;74;21049;-70
2021/01/13 05:44:19;;;;;;;3.10;2.33;;;1.40;99.90;;;;;;1880324;74;21071;-72
2021/01/13 05:46:45;;;;;;;3.33;2.00;;;1.30;99.90;;;;;;1897781;74;21139;-73
2021/01/13 05:49:12;;;;;;;6.28;2.75;;;1.30;99.90;;;;;;1895988;74;21137;-73
2021/01/13 05:51:38;;;;;;;4.95;2.65;;;1.30;99.90;;;;;;1906553;75;21505;-72
2021/01/13 05:54:04;;;;;;;8.18;4.00;;;1.20;99.90;;;;;;1905998;74;21445;-73
2021/01/13 05:56:30;;;;;;;11.18;4.70;;;1.30;99.90;;;;;;1901877;75;21501;-73
2021/01/13 05:58:56;;;;;;;8.13;3.95;;;1.40;99.90;;;;;;1880856;74;21040;-73
2021/01/13 06:01:22;;;;;;;10.10;3.55;;;1.40;99.90;;;;;;1893567;75;21061;-73
2021/01/13 06:03:48;;;;;;;8.40;3.50;;;1.50;99.90;;;;;;1883964;73;21122;-72
2021/01/13 06:06:15;;;;;;;5.72;2.98;;;1.40;99.90;;;;;;1905467;75;21069;-71
2021/01/13 06:08:41;;;;;;;3.08;2.37;;;1.50;99.90;;;;;;1906460;75;21126;-73
2021/01/13 06:11:07;;;;;;;4.92;2.92;;;1.50;99.90;;;;;;1906565;74;21489;-71
2021/01/13 06:13:33;;;;;;;8.38;3.30;;;1.50;99.90;;;;;;1886971;74;21499;-72
2021/01/13 06:16:00;;;;;;;5.92;2.92;;;1.40;99.90;;;;;;1900617;74;21493;-73
2021/01/13 06:18:26;;;;;;;5.58;3.50;;;1.30;99.90;;;;;;1902096;74;21068;-72
2021/01/13 06:20:52;;;;;;;8.53;4.15;;;1.30;99.90;;;;;;1900944;74;21146;-71
2021/01/13 06:23:18;;;;;;;11.60;5.03;;;1.30;99.90;;;;;;1896610;74;21040;-72
2021/01/13 06:25:45;;;;;;;4.65;2.52;;;1.30;99.90;;;;;;1897049;74;21085;-71
2021/01/13 06:28:11;;;;;;;5.92;2.55;;;1.30;99.90;;;;;;1888899;74;21095;-71
2021/01/13 06:30:37;;;;;;;3.67;2.42;;;1.20;99.90;;;;;;1878706;76;21069;-70
2021/01/13 06:33:03;;;;;;;1.82;1.72;;;1.30;99.90;;;;;;1883316;73;21075;-72
2021/01/13 06:35:29;;;;;;;3.05;1.72;;;1.20;99.90;;;;;;1893728;74;21073;-72
2021/01/13 06:37:55;;;;;;;3.77;2.35;;;1.10;99.90;;;;;;1889938;73;21059;-71
2021/01/13 06:40:21;;;;;;;4.33;2.15;;;1.10;99.90;;;;;;1902136;74;21124;-71
2021/01/13 06:42:47;;;;;;;3.67;2.25;;;1.00;99.90;;;;;;1896120;74;21121;-72
2021/01/13 06:45:14;;;;;;;7.08;3.00;;;1.00;99.90;;;;;;1906531;75;21053;-71
2021/01/13 06:47:40;;;;;;;3.50;2.20;;;1.20;99.90;;;;;;1881893;73;21122;-72
2021/01/13 06:50:06;;;;;;;4.60;2.00;;;1.20;99.90;;;;;;1902862;74;21154;-71
2021/01/13 06:52:32;;;;;;;2.85;2.22;;;1.20;99.90;;;;;;1906391;75;21071;-72
2021/01/13 06:54:58;;;;;;;3.65;2.17;;;1.20;99.90;;;;;;1906513;74;21570;-72
2021/01/13 06:57:24;;;;;;;1.85;1.70;;;1.20;99.90;;;;;;1896657;73;21459;-72
2021/01/13 06:59:50;;;;;;;12.88;2.40;;;1.20;99.90;;;;;;1900823;74;21077;-73
2021/01/13 07:02:16;;;;;;;3.30;2.22;;;1.30;99.90;;;;;;1889017;74;21110;-73
2021/01/13 07:04:42;;;;;;;3.15;2.33;;;1.20;99.90;;;;;;1899553;74;21143;-73
2021/01/13 07:07:12;;;;;;;5.92;2.95;;;1.10;99.90;;;;;;1906499;74;21055;-72
2021/01/13 07:09:36;;;;;;;4.70;2.15;;;1.20;99.90;;;;;;1903440;74;21477;-72
2021/01/13 07:12:03;;;;;;;4.83;2.47;;;1.10;99.90;;;;;;1885591;74;21499;-74
2021/01/13 07:14:29;;;;;;;4.20;2.17;;;1.20;99.90;;;;;;1878661;76;21077;-73
2021/01/13 07:16:55;;;;;;;2.27;1.85;;;1.20;99.90;;;;;;1891476;73;21068;-72
2021/01/13 07:19:21;;;;;;;7.97;2.45;;;1.10;99.90;;;;;;1899636;74;21046;-72
2021/01/13 07:21:47;;;;;;;3.10;2.65;;;1.00;99.90;;;;;;1894939;74;21051;-73
2021/01/13 07:24:13;;;;;;;2.25;2.05;;;1.00;99.90;;;;;;1903221;74;21147;-81
2021/01/13 07:26:39;;;;;;;6.33;2.22;;;1.00;99.90;;;;;;1887236;73;21126;-73
2021/01/13 07:29:05;;;;;;;4.17;2.45;;;0.90;99.90;;;;;;1892067;74;21072;-81
2021/01/13 07:31:31;;;;;;;3.62;2.40;;;0.90;99.90;;;;;;1906415;75;21177;-73
2021/01/13 07:33:58;;;;;;;5.55;2.42;;;1.00;99.90;;;;;;1906701;74;21077;-73
2021/01/13 07:36:24;;;;;;;4.45;2.52;;;1.00;99.90;;;;;;1941113;73;21036;-76
2021/01/13 07:38:50;;;;;;;4.40;2.40;;;1.00;99.90;;;;;;1937879;73;21100;-75
2021/01/13 07:41:16;;;;;;;5.35;2.37;;;1.00;99.90;;;;;;1937023;73;21567;-76
2021/01/13 07:43:42;;;;;;;5.35;2.65;;;1.00;99.90;;;;;;1941597;73;21656;-73
2021/01/13 07:46:08;;;;;;;4.05;2.42;;;1.00;99.90;;;;;;1937578;73;21465;-73
2021/01/13 07:48:34;;;;;;;3.20;2.03;;;0.90;99.90;;;;;;1937992;73;21090;-73
2021/01/13 07:51:00;;;;;;;5.65;2.42;;;0.90;99.90;;;;;;1941653;73;21056;-74
2021/01/13 07:53:27;;;;;;;8.40;2.77;;;0.90;99.90;;;;;;1937572;73;21124;-75
2021/01/13 07:55:53;;;;;;;3.12;2.83;;;0.90;99.90;;;;;;1940989;73;21169;-73
2021/01/13 07:58:19;;;;;;;2.25;2.08;;;0.90;99.90;;;;;;1940854;73;21096;-74
2021/01/13 08:00:45;;;;;;;5.92;2.47;;;0.90;99.90;;;;;;1932814;73;21149;-74
2021/01/13 08:03:12;;;;;;;3.10;2.62;;;1.00;99.90;;;;;;1924364;73;21090;-75
2021/01/13 08:05:38;;;;;;;5.35;2.55;;;1.00;99.90;;;;;;1921434;74;21104;-72
2021/01/13 08:08:04;;;;;;;2.30;2.10;;;1.10;99.90;;;;;;1922458;74;21698;-74
2021/01/13 08:10:30;;;;;;;5.15;2.95;;;1.10;99.90;;;;;;1920409;74;21048;-76
2021/01/13 08:12:56;;;;;;;7.15;2.67;;;1.30;99.90;;;;;;1931796;73;21078;-73
2021/01/13 08:15:22;;;;;;;3.30;2.45;;;1.30;99.90;;;;;;1933802;73;21114;-75
2021/01/13 08:17:53;;;;;;;3.40;2.65;;;1.40;99.90;;;;;;1921565;74;21074;-73
2021/01/13 08:20:22;;;;;;;;;;;1.40;99.90;;;;;;1925080;74;21099;-74
2021/01/13 08:22:46;;;;;;;4.62;2.05;;;1.40;99.90;;;;;;1919594;74;20138;-74
2021/01/13 08:25:18;;;;;;;10.58;3.22;;;1.40;99.90;;;;;;1931361;73;21078;-74
2021/01/13 08:27:40;;;;;;;9.03;4.10;;;1.40;99.90;;;;;;1918296;74;21140;-73
2021/01/13 08:30:06;;;;;;;3.47;2.80;;;1.40;99.90;;;;;;1921593;74;21043;-72
2021/01/13 08:32:33;;;;;;;5.05;2.62;;;1.40;99.90;;;;;;1922610;75;21074;-74
2021/01/13 08:34:59;;;;;;;3.20;2.35;;;1.40;99.90;;;;;;1920131;74;21062;-76
2021/01/13 08:37:25;;;;;;;7.55;3.10;;;1.50;99.90;;;;;;1919297;75;21063;-74
2021/01/13 08:39:53;;;;;;;5.33;3.00;;;1.70;99.90;;;;;;1920494;74;21119;-75
2021/01/13 08:42:19;;;;;;;6.58;3.15;;;1.70;99.90;;;;;;1918705;74;21067;-74
2021/01/13 08:44:45;;;;;;;5.40;2.92;;;1.90;99.90;;;;;;1919800;74;21663;-75
2021/01/13 08:47:11;;;;;;;6.35;3.10;;;2.10;99.90;;;;;;1922525;75;21601;-74
2021/01/13 08:49:37;;;;;;;14.68;2.80;;;2.30;99.90;;;;;;1922481;75;21562;-75
2021/01/13 08:52:03;;;;;;;3.55;2.60;;;2.20;99.90;;;;;;1921115;74;21059;-76
2021/01/13 08:54:30;;;;;;;2.22;2.00;;;2.30;99.90;;;;;;1921999;74;21145;-77
2021/01/13 08:56:56;;;;;;;4.05;2.08;;;2.40;99.90;;;;;;1921034;75;21063;-77
2021/01/13 08:59:22;;;;;;;5.30;2.35;;;2.40;99.90;;;;;;1920220;74;21137;-77
2021/01/13 09:01:48;;;;;;;4.12;2.80;;;2.50;99.90;;;;;;1919664;74;21070;-75
2021/01/13 09:04:14;;;;;;;5.97;2.87;;;2.60;99.90;;;;;;1918738;74;21047;-76
2021/01/13 09:06:40;;;;;;;4.37;2.17;;;2.60;99.90;;;;;;1918628;74;21076;-76
2021/01/13 09:09:06;;;;;;;5.53;2.75;;;2.60;99.90;;;;;;1920351;74;21176;-75
2021/01/13 09:11:32;;;;;;;5.92;2.40;;;2.60;99.90;;;;;;1921106;74;21195;-75
2021/01/13 09:13:59;;;;;;;5.60;2.02;;;2.50;99.90;;;;;;1922301;75;21118;-75
2021/01/13 09:16:25;;;;;;;3.20;2.27;;;2.50;99.90;;;;;;1921600;74;21074;-75
2021/01/13 09:18:51;;;;;;;2.90;2.22;;;2.60;99.90;;;;;;1921728;74;21551;-76
2021/01/13 09:21:17;;;;;;;5.05;2.40;;;2.60;99.90;;;;;;1917213;74;21424;-76
2021/01/13 09:23:43;;;;;;;3.35;1.92;;;2.80;99.90;;;;;;1920096;74;21701;-75
2021/01/13 09:26:09;;;;;;;3.42;2.12;;;3.00;99.90;;;;;;1921074;74;21137;-76
2021/01/13 09:28:35;;;;;;;3.77;2.70;;;2.90;99.90;;;;;;1919999;74;21071;-76
2021/01/13 09:31:01;;;;;;;2.22;2.02;;;3.00;99.90;;;;;;1919077;74;21185;-77
2021/01/13 09:33:28;;;;;;;2.95;2.33;;;3.20;99.90;;;;;;1922587;75;21140;-75
2021/01/13 09:35:54;;;;;;;4.33;2.20;;;3.20;99.90;;;;;;1922512;75;21063;-76
2021/01/13 09:38:20;;;;;;;2.12;1.82;;;3.30;99.90;;;;;;1922257;74;21066;-75
2021/01/13 09:40:46;;;;;;;7.15;2.02;;;3.30;99.90;;;;;;1922355;74;21055;-76
2021/01/13 09:43:12;;;;;;;5.72;1.80;;;3.40;99.90;;;;;;1920826;74;21067;-74
2021/01/13 09:45:38;;;;;;;5.47;2.35;;;3.40;99.90;;;;;;1921875;74;21067;-76
2021/01/13 09:48:04;;;;;;;1.77;1.55;;;3.40;99.90;;;;;;1919213;74;21083;-74
2021/01/13 09:50:30;;;;;;;3.58;1.57;;;3.50;99.90;;;;;;1919640;74;21074;-75
2021/01/13 09:52:56;;;;;;;3.52;1.77;;;3.40;99.90;;;;;;1922131;74;21459;-75
2021/01/13 09:55:23;;;;;;;3.58;1.77;;;3.40;99.90;;;;;;1919442;75;21531;-76
2021/01/13 09:57:49;;;;;;;4.10;1.70;;;3.40;99.90;;;;;;1919852;74;21051;-73
2021/01/13 10:00:15;;;;;;;2.08;1.30;;;3.30;99.90;;;;;;1922648;75;21055;-76
2021/01/13 10:02:41;;;;;;;4.50;2.47;;;3.20;99.90;;;;;;1921479;74;21048;-76
2021/01/13 10:05:07;;;;;;;1.65;1.40;;;3.30;99.90;;;;;;1918880;74;21083;-77
2021/01/13 10:07:33;;;;;;;4.85;1.55;;;3.30;99.90;;;;;;1920694;74;21126;-76
2021/01/13 10:09:59;;;;;;;2.22;1.27;;;3.20;99.90;;;;;;1921746;74;21082;-77
2021/01/13 10:12:25;;;;;;;3.60;1.25;;;3.30;99.90;;;;;;1920874;74;21074;-77
2021/01/13 10:14:52;;;;;;;4.78;1.70;;;3.30;99.90;;;;;;1922478;74;21576;-77
2021/01/13 10:17:18;;;;;;;7.00;2.15;;;3.30;99.90;;;;;;1920687;74;21071;-75
2021/01/13 10:19:44;;;;;;;2.15;1.07;;;3.20;99.90;;;;;;1921733;74;21075;-76
2021/01/13 10:22:11;;;;;;;3.95;1.35;;;3.20;99.90;;;;;;1918880;74;21063;-76
2021/01/13 10:24:37;;;;;;;2.45;1.27;;;3.20;99.90;;;;;;1922548;75;21515;-77
2021/01/13 10:27:03;;;;;;;4.12;1.17;;;3.20;99.90;;;;;;1921865;74;21575;-74
2021/01/13 10:29:29;;;;;;;4.53;1.15;;;3.20;99.90;;;;;;1920707;74;21055;-75
2021/01/13 10:31:55;;;;;;;3.05;1.37;;;3.20;99.90;;;;;;1922029;74;21096;-78
2021/01/13 10:34:21;;;;;;;2.45;1.10;;;3.30;99.90;;;;;;1921651;74;21119;-78
2021/01/13 10:36:49;;;;;;;3.27;1.32;;;3.40;99.90;;;;;;1919987;74;21144;-81
2021/01/13 10:39:15;;;;;;;1.62;1.22;;;3.40;99.90;;;;;;1921302;74;21506;-80
2021/01/13 10:41:41;;;;;;;2.33;1.40;;;3.50;99.90;;;;;;1922605;75;21556;-80
2021/01/13 10:44:07;;;;;;;2.15;1.17;;;3.60;99.90;;;;;;1921229;74;21070;-79
2021/01/13 10:46:33;;;;;;;1.75;0.88;;;3.60;99.90;;;;;;1922001;74;21185;-78
2021/01/13 10:48:59;;;;;;;4.22;1.60;;;3.50;99.90;;;;;;1917324;74;21055;-77
2021/01/13 10:51:25;;;;;;;2.83;1.77;;;3.50;99.90;;;;;;1920626;74;21067;-79
2021/01/13 10:53:52;;;;;;;2.72;1.20;;;3.50;99.90;;;;;;1920248;74;21074;-80
2021/01/13 10:56:18;;;;;;;1.67;1.10;;;3.50;99.90;;;;;;1921845;74;21074;-82
2021/01/13 10:58:44;;;;;;;3.92;1.57;;;3.60;99.90;;;;;;1922713;74;21539;-80
2021/01/13 11:01:10;;;;;;;3.83;1.62;;;3.60;99.90;;;;;;1922740;75;21533;-80
2021/01/13 11:03:36;;;;;;;1.65;1.02;;;3.70;99.90;;;;;;1922672;75;21544;-79
2021/01/13 11:06:02;;;;;;;5.17;1.92;;;3.80;99.90;;;;;;1921161;74;21344;-78
2021/01/13 11:08:31;;;;;;;4.65;1.70;;;4.10;99.90;;;;;;1924159;74;21118;-78
2021/01/13 11:10:59;;;;;;;4.22;1.32;;;4.10;99.90;;;;;;1889079;75;21082;-79
2021/01/13 11:13:26;;;;;;;2.90;2.17;;;4.20;99.90;;;;;;1922638;74;21144;-81
2021/01/13 11:15:52;;;;;;;12.30;2.67;;;4.00;99.90;;;;;;1887666;75;21130;-82
2021/01/13 11:18:19;;;;;;;3.35;1.72;;;3.90;99.90;;;;;;1917064;73;21112;-79
2021/01/13 11:20:45;;;;;;;3.00;1.57;;;3.90;99.90;;;;;;1920704;74;21141;-79
2021/01/13 11:23:11;;;;;;;2.80;1.67;;;4.10;99.90;;;;;;1920699;74;21129;-81
2021/01/13 11:25:38;;;;;;;2.65;1.70;;;4.30;99.90;;;;;;1929633;74;21059;-79
2021/01/13 11:28:04;;;;;;;1.87;1.60;;;4.30;99.90;;;;;;1947082;73;21078;-79
2021/01/13 11:30:30;;;;;;;7.15;1.80;;;4.00;99.90;;;;;;1937975;73;21044;-79
2021/01/13 11:32:56;;;;;;;7.40;1.62;;;4.00;99.90;;;;;;1941642;73;21157;-79
2021/01/13 11:35:22;;;;;;;3.75;2.35;;;4.00;99.90;;;;;;1941740;74;21539;-77
2021/01/13 11:37:49;;;;;;;8.15;2.45;;;4.10;99.90;;;;;;1941799;74;21032;-77
2021/01/13 11:40:15;;;;;;;3.62;2.27;;;4.40;99.90;;;;;;1936511;73;21466;-78
2021/01/13 11:42:41;;;;;;;1.95;1.50;;;4.60;99.90;;;;;;1932093;73;21145;-79
2021/01/13 11:45:09;;;;;;;2.00;1.45;;;4.50;99.90;;;;;;1933696;73;21054;-80
2021/01/13 11:47:35;;;;;;;2.20;1.25;;;4.40;99.90;;;;;;1921340;74;21459;-81
2021/01/13 11:50:01;;;;;;;1.37;1.27;;;4.30;99.90;;;;;;1919598;74;21146;-81
2021/01/13 11:52:28;;;;;;;3.60;1.30;;;4.20;99.90;;;;;;1916576;74;21153;-79
2021/01/13 11:54:55;;;;;;;2.65;1.22;;;4.20;99.90;;;;;;1919597;74;21086;-79
2021/01/13 11:57:22;;;;;;;1.82;1.12;;;4.30;99.90;;;;;;1938898;73;21452;-78
2021/01/13 11:59:48;;;;;;;5.83;1.32;;;4.30;99.90;;;;;;1934273;73;21044;-79
2021/01/13 12:02:14;;;;;;;5.00;1.70;;;4.40;99.90;;;;;;1941366;73;21063;-77
2021/01/13 12:04:42;;;;;;;4.97;1.57;;;4.40;99.90;;;;;;1921581;74;21157;-75
2021/01/13 12:07:08;;;;;;;2.70;1.02;;;4.30;99.90;;;;;;1906318;74;21067;-77
2021/01/13 12:09:36;;;;;;;2.98;1.45;;;4.30;99.90;;;;;;1899663;75;21134;-79
2021/01/13 12:12:02;;;;;;;3.02;1.52;;;4.40;99.90;;;;;;1906369;75;21055;-75
2021/01/13 12:14:28;;;;;;;2.05;1.10;;;4.40;99.90;;;;;;1903106;74;21143;-76
2021/01/13 12:16:54;;;;;;;2.85;1.35;;;4.50;99.90;;;;;;1881741;73;21157;-77
2021/01/13 12:19:20;;;;;;;5.30;1.20;;;4.40;99.90;;;;;;1905409;74;21065;-78
2021/01/13 12:21:46;;;;;;;9.20;1.87;;;4.40;99.90;;;;;;1885804;74;21044;-78
2021/01/13 12:24:15;;;;;;;1.47;0.95;;;4.50;99.90;;;;;;1897296;75;21064;-76
2021/01/13 12:26:42;;;;;;;4.40;1.20;;;4.60;99.90;;;;;;1901074;74;21424;-77
2021/01/13 12:29:08;;;;;;;5.30;1.50;;;4.80;99.90;;;;;;1904653;74;21061;-76
2021/01/13 12:31:34;;;;;;;1.10;0.73;;;4.90;99.90;;;;;;1909538;73;21067;-76
2021/01/13 12:34:00;;;;;;;1.22;1.10;;;4.80;99.90;;;;;;1906426;74;21080;-78
2021/01/13 12:36:27;;;;;;;2.60;0.90;;;4.70;99.90;;;;;;1880512;74;21059;-78
2021/01/13 12:38:53;;;;;;;3.95;1.25;;;4.80;99.90;;;;;;1897858;74;21158;-78
2021/01/13 12:41:19;;;;;;;2.08;1.10;;;4.80;99.90;;;;;;1906414;75;21055;-78
2021/01/13 12:43:45;;;;;;;1.90;1.05;;;4.90;99.90;;;;;;1906339;74;21135;-76
2021/01/13 12:46:12;;;;;;;1.17;0.80;;;4.80;99.90;;;;;;1906363;74;21484;-77
2021/01/13 12:48:38;;;;;;;7.15;0.68;;;4.90;99.90;;;;;;1899610;74;21550;-78
2021/01/13 12:51:04;;;;;;;3.42;1.00;;;4.90;99.90;;;;;;1880491;74;21071;-80